28 septembre 2022

Temps Code Temps Temp. Vue Base cloud Vent METAR/SPECI
06:50
V
8 °C 10 km+ - Var Var 2 kt METAR EBOS 280450Z VRB02KT 9999 SCT028 08/06 Q0997 NOSIG
06:20
V
8 °C 10 km+ - Var Var 1 kt METAR EBOS 280420Z VRB01KT 9999 FEW026 08/06 Q0997 NOSIG
05:50
V
8 °C 10 km+ - 140° 140° 3 kt METAR EBOS 280350Z 14003KT 110V240 9999 FEW030TCU SCT036 08/06 Q0997 NOSIG
05:20
V
8 °C 10 km+ - Var Var 2 kt METAR EBOS 280320Z VRB02KT 9999 FEW025TCU SCT035 08/06 Q0997 NOSIG
04:50
V
8 °C 10 km+ - 110° 110° 4 kt METAR EBOS 280250Z 11004KT 050V140 9999 FEW025TCU SCT038 08/06 Q0997 NOSIG
04:20
V
11 °C 10 km+ - 340° 340° 8 kt METAR EBOS 280220Z 34008KT 9999 FEW025CB 11/05 Q0997 NOSIG
03:50
V
11 °C 10 km+ - 330° 330° 11 kt METAR EBOS 280150Z 33011KT 9999 FEW025CB 11/05 Q0997 NOSIG
03:20
V
12 °C 10 km+ - 320° 320° 10 kt METAR EBOS 280120Z 32010KT 9999 FEW028TCU 12/05 Q0997 NOSIG
02:50
V
11 °C 10 km+ - 320° 320° 12 kt METAR EBOS 280050Z 32012KT 9999 FEW028TCU 11/06 Q0997 NOSIG
02:20
V
11 °C 10 km+ - 320° 320° 12 kt METAR EBOS 280020Z 32012KT 9999 FEW025TCU SCT045 11/07 Q0997 NOSIG
01:50
V
11 °C 10 km+ - 320° 320° 11 kt METAR EBOS 272350Z 32011KT 300V010 9999 VCSH FEW025TCU SCT033 11/07 Q0997 NOSIG
01:20
V
12 °C 10 km+ - 320° 320° 11 kt METAR EBOS 272320Z 32011KT 9999 FEW030 SCT036 12/05 Q0997 NOSIG
00:50
V
12 °C 10 km+ - 320° 320° 9 kt METAR EBOS 272250Z 32009KT 9999 SCT035 SCT040 12/06 Q0997 NOSIG
00:20
V
10 °C 10 km+ - Var Var 2 kt METAR EBOS 272220Z VRB02KT 9999 FEW034TCU SCT042 10/06 Q0997 NOSIG

27 septembre 2022

Temps Code Temps Temp. Vue Base cloud Vent METAR/SPECI
23:50
V
12 °C 10 km+ 3.800 ft 320° 320° 8 kt METAR EBOS 272150Z 32008KT 280V340 9999 FEW034TCU BKN038 12/05 Q0997 NOSIG
23:20
V
11 °C 10 km+ - 340° 340° 3 kt METAR EBOS 272120Z 34003KT 300V020 9999 FEW032TCU SCT038 11/06 Q0997 NOSIG
22:50
V
12 °C 10 km+ - 300° 300° 10 kt METAR EBOS 272050Z 30010KT 270V330 9999 FEW020CB 12/06 Q0997 NOSIG
22:20
V
10 °C 10 km+ - 330° 330° 8 kt METAR EBOS 272020Z 33008KT 290V360 9999 VCSH FEW020CB 10/05 Q0997 RETS RETSRA RESHRA TEMPO 4000 SHRA
21:50
V
11 °C 9 km - 300° 300° 14 kt METAR EBOS 271950Z 30014KT 9000 SHRA VCTS FEW020CB SCT046 11/07 Q0997 TEMPO 4000 SHRA
21:20
V
10 °C 10 km+ - 290° 290° 9 kt METAR EBOS 271920Z 29009KT 9999 -SHRA SCT022TCU SCT046 10/06 Q0998 TEMPO 4000 SHRA
20:50
V
12 °C 10 km+ - 320° 320° 11 kt METAR EBOS 271850Z 32011KT 9999 -SHRA SCT022TCU SCT046 12/05 Q0998 TEMPO 29015G25KT 4000 SHRA
20:20
V
11 °C 10 km+ - 340° 340° 10 kt METAR EBOS 271820Z 34010KT 300V010 9999 FEW022TCU 11/07 Q0998 TEMPO 29015G25KT 4000 SHRA
19:50
V
12 °C 10 km+ - 290° 290° 13 kt METAR EBOS 271750Z 29013KT 9999 -SHRA SCT022TCU 12/07 Q0998 TEMPO 29015G25KT 4000 SHRA
19:20
V
12 °C 10 km+ - 290° 290° 15 kt METAR EBOS 271720Z 29015KT 9999 FEW022TCU 12/06 Q0998 TEMPO 29015G25KT 4000 SHRA
18:50
V
12 °C 10 km+ - 280° 280° 11 kt METAR EBOS 271650Z 28011KT 9999 FEW022TCU 12/08 Q0998 NOSIG
18:20
V
11 °C 8 km 4.800 ft 310° 310° 15 kt METAR EBOS 271620Z 31015KT 8000 -SHRA FEW006 SCT022TCU BKN048 11/08 Q0998 NOSIG
17:50
V
12 °C 10 km+ 4.700 ft 280° 280° 11 kt METAR EBOS 271550Z 28011KT 9999 VCSH FEW022TCU SCT029 BKN047 12/08 Q0998 TEMPO 29015G25KT 4000 SHRA
17:20
V
13 °C 10 km+ - 290° 290° 13 kt METAR EBOS 271520Z 29013KT 9999 FEW022TCU 13/07 Q0998 TEMPO 29015G25KT 4000 SHRA
16:50
V
13 °C 10 km+ - 290° 290° 15 kt METAR EBOS 271450Z 29015KT 9999 FEW022TCU SCT040 13/08 Q0999 TEMPO 29015G25KT 4000 SHRA
16:20
V
12 °C 10 km+ - 280° 280° 17 kt METAR EBOS 271420Z 28017KT 9999 FEW022TCU SCT044 12/07 Q0999 NOSIG
15:50
V
13 °C 10 km+ 4.400 ft 290° 290° 18 kt METAR EBOS 271350Z 29018KT 9999 FEW022TCU SCT029 BKN044 13/08 Q0999 NOSIG
15:20
V
11 °C 10 km+ 4.500 ft 280° 280° 19 kt METAR EBOS 271320Z 28019KT 9999 -SHRA FEW018CB BKN045 11/08 Q1000 TEMPO 28018G28KT 4000 SHRA
14:50
V
12 °C 10 km+ - 280° 280° 17 kt METAR EBOS 271250Z 28017KT 9999 -SHRA SCT022TCU SCT030 12/08 Q0999 TEMPO 28018G28KT 4000 SHRA
14:20
V
12 °C 10 km+ 4.600 ft 280° 280° 18 kt METAR EBOS 271220Z 28018KT 9999 -SHRA FEW006 SCT022TCU BKN046 12/07 Q1000 TEMPO 28018G28KT 4000 SHRA
13:50
V
11 °C 10 km+ - 260° 260° 15 kt METAR EBOS 271150Z 26015KT 9999 -SHRA FEW006 SCT022TCU 11/08 Q1000 TEMPO 28018G28KT 4000 SHRA
13:20
V
12 °C 10 km+ - 280° 280° 18 kt METAR EBOS 271120Z 28018KT 250V310 9999 FEW022TCU SCT030 12/06 Q1000 TEMPO 28018G28KT 4000 SHRA
12:50
V
12 °C 10 km+ 4.000 ft 280° 280° 17 kt METAR EBOS 271050Z 28017KT 9999 VCSH FEW022TCU SCT026 BKN040 12/06 Q1000 TEMPO 29016G28KT 4000 SHRA
12:20
V
13 °C 10 km+ - 300° 300° 16 kt METAR EBOS 271020Z 30016KT 9999 FEW036 13/05 Q1001 TEMPO 29016G28KT 4000 SHRA
11:50
V
13 °C 10 km+ - 290° 290° 18 kt METAR EBOS 270950Z 29018KT 9999 FEW032 13/06 Q1001 NOSIG
11:20
V
12 °C 10 km+ - 290° 290° 18 kt METAR EBOS 270920Z 29018KT 9999 FEW020TCU 12/05 Q1001 NOSIG
10:50
V
11 °C 10 km+ - 300° 300° 15 kt METAR EBOS 270850Z 30015KT 9999 VCSH FEW020TCU SCT028 11/05 Q1001 NOSIG
10:20
V
12 °C 10 km+ - 300° 300° 16 kt METAR EBOS 270820Z 30016KT 9999 FEW020TCU SCT030 12/06 Q1001 NOSIG
09:50
V
11 °C 10 km+ - 300° 300° 17 kt METAR EBOS 270750Z 30017KT 9999 FEW020TCU SCT032 11/05 Q1001 NOSIG
09:20
V
11 °C 10 km+ - 300° 300° 19 kt METAR EBOS 270720Z 30019KT 9999 FEW020TCU SCT027 11/04 Q1000 NOSIG
08:50
V
11 °C 10 km+ - 310° 310° 18 kt METAR EBOS 270650Z 31018KT 9999 FEW020TCU SCT027 11/06 Q1000 NOSIG
08:20
V
11 °C 10 km+ 4.800 ft 320° 320° 16 kt METAR EBOS 270620Z 32016KT 9999 FEW020TCU SCT027 BKN048 11/05 Q1000 NOSIG
07:50
V
11 °C 9 km 3.300 ft 300° 300° 16 kt METAR EBOS 270550Z 30016KT 9000 -SHRA FEW020TCU SCT025 BKN033 11/06 Q1000 TEMPO 28012G25KT 3500 SHRA
07:20
V
10 °C 10 km+ - 320° 320° 12 kt METAR EBOS 270520Z 32012KT 9999 -SHRA SCT020TCU SCT048 10/07 Q1000 TEMPO 28012G25KT 3500 SHRA
06:50
I
9 °C 3,5 km 1.800 ft 280° 280° 17 kt METAR EBOS 270450Z 28017KT 3500 +SHRA BR FEW004 BKN018TCU BKN030 09/07 Q1000 TEMPO 9999 NSW
06:20
V
11 °C 10 km+ - 310° 310° 13 kt METAR EBOS 270420Z 31013KT 9999 FEW018TCU SCT030 11/05 Q1000 TEMPO 4000 SHRA
05:50
V
10 °C 10 km+ 3.000 ft 280° 280° 17 kt METAR EBOS 270350Z 28017KT 9999 VCSH SCT018TCU BKN030 10/06 Q1000 NOSIG
05:20
V
10 °C 10 km+ 4.000 ft 280° 280° 17 kt METAR EBOS 270320Z 28017KT 9999 -SHRA SCT028TCU BKN040 10/06 Q1000 NOSIG
04:50
V
11 °C 10 km+ 4.000 ft 320° 320° 12 kt METAR EBOS 270250Z 32012KT 290V350 9999 VCSH SCT028TCU BKN040 11/06 Q1000 NOSIG
04:20
V
11 °C 10 km+ - 300° 300° 18 kt METAR EBOS 270220Z 30018KT 9999 -SHRA FEW030 11/05 Q1000 NOSIG
03:50
V
12 °C 10 km+ - 320° 320° 17 kt METAR EBOS 270150Z 32017KT 9999 SCT030 12/04 Q1000 NOSIG
03:20
V
12 °C 10 km+ - 320° 320° 14 kt METAR EBOS 270120Z 32014KT 9999 FEW030 12/05 Q1000 NOSIG
02:50
V
12 °C 10 km+ - 320° 320° 15 kt METAR EBOS 270050Z 32015KT 9999 FEW028 12/05 Q1000 NOSIG
02:20
V
12 °C 10 km+ - 320° 320° 15 kt METAR EBOS 270020Z 32015KT 9999 SCT028 12/06 Q1000 NOSIG
01:50
V
12 °C 10 km+ - 310° 310° 15 kt METAR EBOS 262350Z 31015KT 9999 FEW032 12/06 Q1000 NOSIG
01:20
V
12 °C 10 km+ - 320° 320° 15 kt METAR EBOS 262320Z 32015KT 9999 FEW030 12/05 Q1000 NOSIG
00:50
V
12 °C 10 km+ - 320° 320° 15 - 25 kt METAR EBOS 262250Z 32015G25KT 9999 SCT030 12/05 Q1000 NOSIG
00:20
V
12 °C 10 km+ - 320° 320° 17 kt METAR EBOS 262220Z 32017KT 9999 FEW030 SCT045 12/06 Q1000 NOSIG

26 septembre 2022

Temps Code Temps Temp. Vue Base cloud Vent METAR/SPECI
23:50
V
12 °C 10 km+ - 330° 330° 18 - 28 kt METAR EBOS 262150Z 33018G28KT 9999 FEW026 SCT040 12/06 Q1000 NOSIG
23:20
V
11 °C 10 km+ - 330° 330° 18 kt METAR EBOS 262120Z 33018KT 9999 -SHRA SCT026TCU SCT032 11/06 Q1000 NOSIG
22:50
V
12 °C 10 km+ - 330° 330° 17 kt METAR EBOS 262050Z 33017KT 9999 FEW026 SCT032 12/06 Q1000 NOSIG
22:20
V
12 °C 10 km+ - 320° 320° 17 kt METAR EBOS 262020Z 32017KT 9999 FEW026 12/07 Q1000 NOSIG
21:50
V
12 °C 10 km+ - 330° 330° 17 kt METAR EBOS 261950Z 33017KT 9999 FEW022 SCT028 12/06 Q1000 NOSIG
21:20
V
12 °C 10 km+ - 350° 350° 17 kt METAR EBOS 261920Z 35017KT 9999 FEW016TCU 12/08 Q1000 NOSIG
20:50
V
12 °C 10 km+ - 350° 350° 18 - 28 kt METAR EBOS 261850Z 35018G28KT 9999 -SHRA FEW013TCU SCT020 12/08 Q1000 NOSIG
20:20
V
12 °C 10 km+ - 340° 340° 16 kt METAR EBOS 261820Z 34016KT 9999 FEW017TCU 12/08 Q0999 TEMPO 33020G33KT
19:50
V
12 °C 10 km+ - 330° 330° 21 - 31 kt METAR EBOS 261750Z 33021G31KT 9999 -SHRA SCT018TCU 12/08 Q0999 NOSIG
19:20
V
13 °C 10 km+ - 320° 320° 19 kt METAR EBOS 261720Z 32019KT 9999 FEW025 13/08 Q0999 TEMPO 32020G30KT
18:50
V
13 °C 10 km+ - 320° 320° 20 kt METAR EBOS 261650Z 32020KT 9999 FEW025 13/07 Q0999 TEMPO 32020G30KT
18:20
V
13 °C 10 km+ - 320° 320° 18 kt METAR EBOS 261620Z 32018KT 9999 FEW022TCU 13/08 Q0999 TEMPO 33017G28KT
17:50
V
12 °C 10 km+ - 320° 320° 18 kt METAR EBOS 261550Z 32018KT 9999 FEW022TCU 12/08 Q0999 TEMPO 33017G28KT
17:20
M
12 °C 6 km - 330° 330° 16 kt METAR EBOS 261520Z 33016KT 6000 -SHRA FEW006 SCT025TCU 12/08 Q0999 TEMPO 33016G27KT
16:50
V
13 °C 8 km - 320° 320° 13 - 23 kt METAR EBOS 261450Z 32013G23KT 290V360 8000 -SHRA SCT030TCU 13/08 Q0999 NOSIG
16:20
V
15 °C 10 km+ - 310° 310° 14 kt METAR EBOS 261420Z 31014KT 9999 VCSH FEW030TCU 15/08 Q0999 NOSIG
15:50
V
15 °C 10 km+ - 310° 310° 15 kt METAR EBOS 261350Z 31015KT 9999 FEW030 15/08 Q0998 NOSIG
15:20
V
15 °C 10 km+ - 310° 310° 15 kt METAR EBOS 261320Z 31015KT 9999 FEW026 15/08 Q0998 NOSIG
14:50
V
14 °C 10 km+ - 300° 300° 14 kt METAR EBOS 261250Z 30014KT 9999 SCT026 14/09 Q0998 NOSIG
14:20
V
14 °C 10 km+ - 300° 300° 13 kt METAR EBOS 261220Z 30013KT 9999 SCT024 14/10 Q0999 TEMPO 4000 -SHRA BKN012TCU
13:50
M
14 °C 10 km+ 2.400 ft 290° 290° 5 kt METAR EBOS 261150Z 29005KT 260V360 9999 -SHRA FEW010 BKN024 14/10 Q0998 TEMPO 4000 -SHRA BKN012TCU
13:20
V
12 °C 10 km+ 4.500 ft Var Var 2 kt METAR EBOS 261120Z VRB02KT 9999 FEW010 SCT020 BKN045 12/11 Q0999 TEMPO 4000 -SHRA BKN012TCU
12:50
M
12 °C 8 km 2.000 ft 340° 340° 8 kt METAR EBOS 261050Z 34008KT 310V010 8000 -SHRA FEW003 BKN020 12/11 Q0999 TEMPO 4000 BKN012TCU
12:20
I
11 °C 3 km 500 ft 220° 220° 11 kt METAR EBOS 261020Z 22011KT 200V260 3000 -SHRA FEW003 BKN005 11/11 Q0999 BECMG 9999 BKN020
11:50
M
12 °C 8 km 1.000 ft 210° 210° 13 kt METAR EBOS 260950Z 21013KT 8000 FEW003 BKN010 12/11 Q0999 RERA BECMG BKN020
11:20
I
11 °C 4 km 500 ft 230° 230° 10 kt METAR EBOS 260920Z 23010KT 4000 -RA FEW003 BKN005 11/11 Q0999 BECMG BKN020
10:50
I
11 °C 6 km 500 ft 230° 230° 13 kt METAR EBOS 260850Z 23013KT 6000 RA FEW003 BKN005 11/11 Q1000 BECMG BKN020
10:20
I
11 °C 4 km 500 ft 210° 210° 14 kt METAR EBOS 260820Z 21014KT 4000 -RA FEW003 BKN005 11/11 Q1000 TEMPO RA
09:50
M
11 °C 6 km 2.000 ft 200° 200° 14 kt METAR EBOS 260750Z 20014KT 6000 -RA FEW005 BKN020 11/10 Q1000 BECMG 4000 RA
09:20
M
11 °C 5 km 2.000 ft 200° 200° 14 kt METAR EBOS 260720Z 20014KT 5000 -RA FEW005 BKN020 11/10 Q1001 BECMG 4000 RA
08:50
V
11 °C 10 km+ - 200° 200° 15 kt METAR EBOS 260650Z 20015KT 9999 FEW007 SCT025 11/09 Q1001 BECMG 4000 RA
08:20
V
10 °C 8 km 3.800 ft 200° 200° 13 kt METAR EBOS 260620Z 20013KT 8000 -SHRA SCT026 BKN038 10/09 Q1002 TEMPO 4000 SHRA
07:50
V
11 °C 10 km+ 3.800 ft 210° 210° 12 kt METAR EBOS 260550Z 21012KT 9999 SCT026 BKN038 11/08 Q1003 NOSIG
07:20
V
10 °C 10 km+ 3.800 ft 200° 200° 11 kt METAR EBOS 260520Z 20011KT 9999 SCT028 BKN038 10/08 Q1003 NOSIG
06:50
V
10 °C 10 km+ 3.500 ft 200° 200° 11 kt METAR EBOS 260450Z 20011KT 9999 FEW025 BKN035 10/08 Q1004 NOSIG
06:20
V
10 °C 10 km+ - 200° 200° 12 kt METAR EBOS 260420Z 20012KT 9999 FEW025 SCT037 10/07 Q1005 NOSIG
05:50
V
10 °C 10 km+ 3.000 ft 200° 200° 10 kt METAR EBOS 260350Z 20010KT 9999 FEW022 BKN030 10/07 Q1005 NOSIG
05:20
V
10 °C 10 km+ - 200° 200° 10 kt METAR EBOS 260320Z 20010KT 9999 SCT030 10/07 Q1006 NOSIG
04:50
V
10 °C 10 km+ - 200° 200° 11 kt METAR EBOS 260250Z 20011KT CAVOK 10/07 Q1007 NOSIG
04:20
V
10 °C 10 km+ - 200° 200° 11 kt METAR EBOS 260220Z 20011KT CAVOK 10/07 Q1007 NOSIG
03:50
V
10 °C 10 km+ - 210° 210° 10 kt METAR EBOS 260150Z 21010KT 9999 FEW048 10/07 Q1008 NOSIG
03:20
V
10 °C 10 km+ - 210° 210° 9 kt METAR EBOS 260120Z 21009KT 9999 FEW048 10/07 Q1009 NOSIG
02:50
V
10 °C 10 km+ - 210° 210° 8 kt METAR EBOS 260050Z 21008KT 9999 FEW048 10/07 Q1009 NOSIG
02:20
V
10 °C 10 km+ - 210° 210° 8 kt METAR EBOS 260020Z 21008KT 9999 SCT048 10/07 Q1010 NOSIG
Données plus anciennes

Nous et des tiers suivons ton comportement sur Internet sur notre site Web à l'aide de cookies. Si tu continues, nous supposons que tu acceptes notre politique en matière de cookies. Apprendre plus